Time;durP1;ratioP1;P1;durP2;ratioP2;P2;SDS_P1;SDS_P2;PMS_P1;PMS_P2;Temp;Humidity;BMP_temperature;BMP_pressure;BME280_temperature;BME280_humidity;BME280_pressure;Samples;Min_cycle;Max_cycle;Signal;HPM_P1;HPM_P2
2022/01/18 00:01:52;;;;;;;6.30;1.90;;;-0.90;99.90;;;;;;4991696;28;20245;-56
2022/01/18 00:04:18;;;;;;;6.10;2.03;;;-1.00;99.90;;;;;;4991820;28;20203;-58
2022/01/18 00:06:48;;;;;;;5.97;2.50;;;-0.90;99.90;;;;;;4996087;28;20186;-55
2022/01/18 00:09:18;;;;;;;3.53;1.63;;;-0.90;99.90;;;;;;5014950;28;20295;-55
2022/01/18 00:11:49;;;;;;;10.53;2.47;;;-1.00;99.90;;;;;;5015081;28;20213;-55
2022/01/18 00:14:39;;;;;;;6.20;2.00;;;-0.90;99.90;;;;;;5015321;28;20193;-55
2022/01/18 00:17:17;;;;;;;7.73;2.13;;;-1.00;99.90;;;;;;5015132;28;20231;-55
2022/01/18 00:19:52;;;;;;;7.27;2.37;;;-0.90;99.90;;;;;;4999170;28;20184;-53
2022/01/18 00:22:18;;;;;;;5.67;2.30;;;-0.90;99.90;;;;;;5014811;28;20191;-55
2022/01/18 00:24:44;;;;;;;6.57;2.43;;;-0.80;99.90;;;;;;5014772;28;20191;-56
2022/01/18 00:27:14;;;;;;;7.17;2.33;;;-0.80;99.90;;;;;;5014951;28;20545;-54
2022/01/18 00:29:52;;;;;;;14.73;2.37;;;-0.70;99.90;;;;;;5014531;28;20229;-56
2022/01/18 00:32:51;;;;;;;5.13;2.07;;;-0.70;99.90;;;;;;5014831;28;20187;-53
2022/01/18 00:35:04;;;;;;;7.83;2.27;;;-0.60;99.90;;;;;;5012606;28;20643;-59
2022/01/18 00:37:35;;;;;;;3.30;1.73;;;-0.60;99.90;;;;;;5014737;28;20219;-56
2022/01/18 00:40:06;;;;;;;5.07;1.90;;;-0.50;99.90;;;;;;4997644;28;20190;-58
2022/01/18 00:42:32;;;;;;;4.47;1.97;;;-0.50;99.90;;;;;;5014983;28;20315;-55
2022/01/18 00:44:58;;;;;;;7.50;2.80;;;-0.40;99.90;;;;;;5014467;28;20202;-55
2022/01/18 00:47:24;;;;;;;7.00;2.30;;;-0.40;99.90;;;;;;5012376;28;20195;-56
2022/01/18 00:49:58;;;;;;;3.93;1.60;;;-0.30;99.90;;;;;;5013393;28;20646;-56
2022/01/18 00:52:25;;;;;;;6.97;2.50;;;-0.30;99.90;;;;;;5014033;28;20561;-57
2022/01/18 00:54:51;;;;;;;9.63;1.90;;;-0.30;99.90;;;;;;5013500;28;20210;-52
2022/01/18 00:57:16;;;;;;;4.33;1.93;;;-0.30;99.90;;;;;;5014595;28;20203;-56
2022/01/18 00:59:44;;;;;;;2.80;1.40;;;-0.20;99.90;;;;;;5014251;28;20179;-56
2022/01/18 01:02:10;;;;;;;6.00;2.40;;;-0.20;99.90;;;;;;4996875;28;20194;-53
2022/01/18 01:04:40;;;;;;;5.87;1.83;;;-0.10;99.90;;;;;;5014108;28;20180;-58
2022/01/18 01:07:06;;;;;;;5.57;2.17;;;-0.20;99.90;;;;;;4996593;28;20188;-57
2022/01/18 01:09:33;;;;;;;7.13;2.60;;;-0.20;99.90;;;;;;5014090;28;20274;-57
2022/01/18 01:11:59;;;;;;;7.47;2.30;;;-0.10;99.90;;;;;;4996372;28;20191;-56
2022/01/18 01:14:27;;;;;;;2.90;1.27;;;-0.10;99.90;;;;;;5014143;28;20196;-58
2022/01/18 01:17:10;;;;;;;5.80;2.00;;;-0.10;99.90;;;;;;5013648;28;20226;-55
2022/01/18 01:44:22;;;;;;;3.70;1.50;;;-0.50;99.90;;;;;;5013475;28;20257;-56
2022/01/18 01:46:49;;;;;;;6.33;2.10;;;-0.50;99.90;;;;;;5012968;28;20271;-58
2022/01/18 01:49:15;;;;;;;7.63;1.90;;;-0.60;99.90;;;;;;5013300;28;20187;-56
2022/01/18 01:51:43;;;;;;;7.17;2.00;;;-0.60;99.90;;;;;;5013034;28;20301;-55
2022/01/18 01:54:11;;;;;;;6.30;1.80;;;-0.60;99.90;;;;;;4994328;28;20710;-63
2022/01/18 01:56:37;;;;;;;7.37;2.40;;;-0.60;99.90;;;;;;4993457;28;20220;-53
2022/01/18 01:59:04;;;;;;;8.83;2.13;;;-0.60;99.90;;;;;;4975856;28;20192;-55
2022/01/18 02:01:37;;;;;;;4.40;1.43;;;-0.70;99.90;;;;;;4993285;28;20184;-55
2022/01/18 02:04:03;;;;;;;9.47;2.27;;;-0.70;99.90;;;;;;4993235;28;20176;-56
2022/01/18 02:06:28;;;;;;;6.33;1.80;;;-0.70;99.90;;;;;;4991099;28;20188;-55
2022/01/18 02:08:54;;;;;;;5.43;1.50;;;-0.70;99.90;;;;;;4973688;28;20231;-60
2022/01/18 02:11:20;;;;;;;3.90;1.40;;;-0.70;99.90;;;;;;4974050;28;20184;-57
2022/01/18 02:13:50;;;;;;;4.30;1.90;;;-0.80;99.90;;;;;;4973502;28;20177;-60
2022/01/18 02:21:45;;;;;;;9.47;2.43;;;-0.80;99.90;;;;;;4973513;28;20227;-58
2022/01/18 02:21:50;;;;;;;4.27;1.67;;;-0.80;99.90;;;;;;4973374;28;20266;-55
2022/01/18 02:24:17;;;;;;;6.73;2.27;;;-0.80;99.90;;;;;;4973446;28;20545;-51
2022/01/18 02:26:43;;;;;;;5.47;1.50;;;-0.80;99.90;;;;;;4973608;28;20192;-51
2022/01/18 02:29:10;;;;;;;7.27;2.33;;;-0.80;99.90;;;;;;4973321;28;20247;-55
2022/01/18 02:31:37;;;;;;;5.17;1.43;;;-0.90;99.90;;;;;;4956356;28;20209;-52
2022/01/18 02:34:17;;;;;;;6.07;1.50;;;-0.80;99.90;;;;;;4973098;28;20691;-55
2022/01/18 02:36:44;;;;;;;8.70;1.77;;;-0.90;99.90;;;;;;4973340;28;20220;-54
2022/01/18 02:39:11;;;;;;;4.90;1.53;;;-0.90;99.90;;;;;;4972931;28;20196;-52
2022/01/18 02:41:38;;;;;;;5.57;2.37;;;-1.00;99.90;;;;;;4973616;28;20229;-54
2022/01/18 02:44:10;;;;;;;6.60;1.63;;;-1.10;99.90;;;;;;4973105;28;20216;-57
2022/01/18 02:46:38;;;;;;;6.57;2.10;;;-1.10;99.90;;;;;;4973395;28;20188;-52
2022/01/18 02:49:05;;;;;;;7.97;1.67;;;-1.10;99.90;;;;;;4972800;28;20204;-55
2022/01/18 02:51:31;;;;;;;7.20;1.77;;;-1.10;99.90;;;;;;4972872;28;20198;-51
2022/01/18 02:54:03;;;;;;;3.57;1.50;;;-1.20;99.90;;;;;;4989959;28;20236;-53
2022/01/18 02:56:42;;;;;;;6.40;2.07;;;-1.20;99.90;;;;;;4992449;28;20663;-58
2022/01/18 02:59:16;;;;;;;7.10;2.10;;;-1.20;99.90;;;;;;4992284;28;20215;-54
2022/01/18 03:04:27;;;;;;;4.37;1.57;;;-1.20;99.90;;;;;;4992691;28;20238;-53
2022/01/18 03:06:53;;;;;;;5.70;1.63;;;-1.20;99.90;;;;;;4997339;28;20187;-55
2022/01/18 03:09:19;;;;;;;7.67;2.43;;;-1.20;99.90;;;;;;5011944;28;20559;-52
2022/01/18 03:11:44;;;;;;;2.90;1.47;;;-1.20;99.90;;;;;;5012207;28;20713;-53
2022/01/18 03:14:10;;;;;;;5.93;1.37;;;-1.30;99.90;;;;;;5011814;28;20190;-55
2022/01/18 03:16:37;;;;;;;3.47;1.70;;;-1.30;99.90;;;;;;5011747;28;20214;-56
2022/01/18 03:19:03;;;;;;;5.47;1.63;;;-1.20;99.90;;;;;;5011223;28;20647;-57
2022/01/18 03:21:29;;;;;;;7.53;1.93;;;-1.20;99.90;;;;;;5011692;28;20180;-52
2022/01/18 03:24:10;;;;;;;4.10;1.70;;;-1.20;99.90;;;;;;5011304;28;20194;-54
2022/01/18 03:28:04;;;;;;;2.37;1.40;;;-1.30;99.90;;;;;;5011516;28;20196;-55
2022/01/18 03:29:23;;;;;;;3.83;1.87;;;-1.30;99.90;;;;;;5011495;28;20183;-55
2022/01/18 03:31:49;;;;;;;4.43;1.60;;;-1.20;99.90;;;;;;5011299;28;20186;-67
2022/01/18 03:34:15;;;;;;;4.23;1.50;;;-1.20;99.90;;;;;;5011823;28;20551;-56
2022/01/18 03:36:41;;;;;;;5.30;1.73;;;-1.20;99.90;;;;;;5011846;28;20222;-60
2022/01/18 03:39:07;;;;;;;6.63;2.33;;;-1.20;99.90;;;;;;5011437;28;20183;-57
2022/01/18 03:41:32;;;;;;;4.07;1.80;;;-1.20;99.90;;;;;;5011487;28;20190;-52
2022/01/18 03:43:58;;;;;;;4.80;1.97;;;-1.20;99.90;;;;;;5014906;28;20592;-54
2022/01/18 03:46:24;;;;;;;4.87;1.50;;;-1.20;99.90;;;;;;5015529;28;20544;-53
2022/01/18 03:48:51;;;;;;;4.20;1.97;;;-1.30;99.90;;;;;;5015400;28;20183;-66
2022/01/18 03:51:18;;;;;;;5.57;1.60;;;-1.30;99.90;;;;;;5015323;28;20195;-63
2022/01/18 03:53:44;;;;;;;6.03;1.80;;;-1.40;99.90;;;;;;5014988;28;20251;-52
2022/01/18 03:56:10;;;;;;;2.73;1.60;;;-1.40;99.90;;;;;;5014948;28;20353;-56
2022/01/18 03:58:36;;;;;;;5.00;2.07;;;-1.40;99.90;;;;;;5015505;28;20241;-52
2022/01/18 04:01:03;;;;;;;9.60;2.03;;;-1.40;99.90;;;;;;4997441;28;20184;-51
2022/01/18 04:03:29;;;;;;;2.13;1.00;;;-1.30;99.90;;;;;;5015988;28;20179;-54
2022/01/18 04:05:56;;;;;;;3.70;1.40;;;-1.40;99.90;;;;;;5008306;28;20191;-55
2022/01/18 04:08:23;;;;;;;4.50;1.30;;;-1.40;99.90;;;;;;5006721;28;20187;-60
2022/01/18 04:10:49;;;;;;;6.60;1.33;;;-1.30;99.90;;;;;;4997341;28;20187;-58
2022/01/18 04:13:15;;;;;;;6.07;1.90;;;-1.40;99.90;;;;;;5014904;28;20546;-57
2022/01/18 04:15:42;;;;;;;7.57;2.07;;;-1.30;99.90;;;;;;5014809;28;20237;-57
2022/01/18 04:18:22;;;;;;;4.23;1.70;;;-1.40;99.90;;;;;;5014680;28;20226;-60
2022/01/18 04:28:56;;;;;;;5.43;1.83;;;-1.30;99.90;;;;;;5013538;28;20503;-57
2022/01/18 04:31:24;;;;;;;9.70;2.20;;;-1.30;99.90;;;;;;5014129;28;20454;-54
2022/01/18 04:33:50;;;;;;;3.53;1.73;;;-1.20;99.90;;;;;;5014360;28;20607;-54
2022/01/18 04:36:16;;;;;;;6.13;1.70;;;-1.30;99.90;;;;;;5014074;28;20195;-57
2022/01/18 04:38:42;;;;;;;5.93;1.80;;;-1.30;99.90;;;;;;4996826;28;20187;-58
2022/01/18 04:41:12;;;;;;;8.43;1.80;;;-1.20;99.90;;;;;;4996581;28;20207;-55
2022/01/18 04:48:55;;;;;;;3.00;1.27;;;-1.20;99.90;;;;;;4994156;28;20256;-59
2022/01/18 04:51:21;;;;;;;6.80;1.53;;;-1.20;99.90;;;;;;4994495;28;20180;-58
2022/01/18 04:53:52;;;;;;;5.80;1.90;;;-1.10;99.90;;;;;;5009871;28;20266;-57
2022/01/18 04:56:28;;;;;;;10.13;2.27;;;-1.20;99.90;;;;;;5013689;28;20191;-58
2022/01/18 04:58:54;;;;;;;6.70;1.70;;;-1.20;99.90;;;;;;5013671;28;20570;-68
2022/01/18 05:01:20;;;;;;;6.50;1.97;;;-1.20;99.90;;;;;;5014021;28;20185;-57
2022/01/18 05:03:46;;;;;;;10.07;2.53;;;-1.20;99.90;;;;;;5014033;28;20258;-57
2022/01/18 05:06:15;;;;;;;4.53;1.23;;;-1.20;99.90;;;;;;5013635;28;20209;-56
2022/01/18 05:08:42;;;;;;;6.43;2.30;;;-1.20;99.90;;;;;;5013882;28;20179;-56
2022/01/18 05:11:14;;;;;;;7.93;2.33;;;-1.10;99.90;;;;;;5012772;28;20226;-58
2022/01/18 05:16:48;;;;;;;4.50;1.70;;;-1.20;99.90;;;;;;4994046;28;20208;-54
2022/01/18 05:24:25;;;;;;;4.80;1.93;;;-1.30;99.90;;;;;;4993768;28;20247;-59
2022/01/18 05:26:52;;;;;;;2.97;1.70;;;-1.30;99.90;;;;;;4993941;28;20206;-57
2022/01/18 05:29:18;;;;;;;5.80;1.73;;;-1.30;99.90;;;;;;4993585;28;20194;-58
2022/01/18 05:31:44;;;;;;;3.33;1.73;;;-1.40;99.90;;;;;;4993845;28;20180;-55
2022/01/18 05:34:11;;;;;;;5.60;2.10;;;-1.30;99.90;;;;;;4992683;28;20235;-59
2022/01/18 05:36:37;;;;;;;8.57;2.30;;;-1.40;99.90;;;;;;4993535;28;20281;-57
2022/01/18 05:39:03;;;;;;;4.07;1.43;;;-1.40;99.90;;;;;;4991491;28;20184;-57
2022/01/18 05:41:29;;;;;;;5.63;2.10;;;-1.30;99.90;;;;;;4992729;28;20184;-58
2022/01/18 05:43:55;;;;;;;8.23;2.00;;;-1.30;99.90;;;;;;4993042;28;20290;-60
2022/01/18 05:46:20;;;;;;;8.70;1.80;;;-1.40;99.90;;;;;;4992935;28;20179;-63
2022/01/18 05:48:46;;;;;;;4.20;1.80;;;-1.40;99.90;;;;;;4993015;28;20242;-57
2022/01/18 05:51:12;;;;;;;6.17;1.90;;;-1.40;99.90;;;;;;4991972;28;20172;-57
2022/01/18 05:53:39;;;;;;;4.20;1.97;;;-1.50;99.90;;;;;;5007743;28;20238;-60
2022/01/18 05:56:12;;;;;;;5.33;2.03;;;-1.40;99.90;;;;;;4993897;28;20182;-60
2022/01/18 05:58:44;;;;;;;4.67;1.63;;;-1.40;99.90;;;;;;5011927;28;20537;-61
2022/01/18 06:01:10;;;;;;;4.57;1.13;;;-1.40;99.90;;;;;;5006474;28;20427;-65
2022/01/18 06:03:51;;;;;;;6.10;1.70;;;-1.40;99.90;;;;;;5010635;28;20187;-62
2022/01/18 06:09:01;;;;;;;3.37;1.47;;;-1.50;99.90;;;;;;5010061;28;20210;-58
2022/01/18 06:11:26;;;;;;;7.83;2.20;;;-1.50;99.90;;;;;;5010030;28;20179;-59
2022/01/18 06:13:52;;;;;;;6.87;1.90;;;-1.50;99.90;;;;;;5008608;28;20261;-60
2022/01/18 06:16:18;;;;;;;6.53;2.30;;;-1.40;99.90;;;;;;5010576;28;20186;-58
2022/01/18 06:18:44;;;;;;;6.13;2.40;;;-1.40;99.90;;;;;;5011095;28;20195;-56
2022/01/18 06:21:10;;;;;;;7.00;1.87;;;-1.30;99.90;;;;;;5000784;28;20475;-57
2022/01/18 06:23:36;;;;;;;8.47;2.50;;;-1.30;99.90;;;;;;5010489;28;20222;-55
2022/01/18 06:26:03;;;;;;;7.27;2.20;;;-1.30;99.90;;;;;;5010371;28;20950;-52
2022/01/18 06:28:29;;;;;;;10.57;2.30;;;-1.30;99.90;;;;;;5010332;28;20543;-56
2022/01/18 06:30:55;;;;;;;8.80;2.37;;;-1.20;99.90;;;;;;5010427;28;20191;-58
2022/01/18 06:33:21;;;;;;;4.67;1.93;;;-1.20;99.90;;;;;;5000826;28;20531;-57
2022/01/18 06:35:47;;;;;;;4.27;1.70;;;-1.20;99.90;;;;;;4999117;28;20344;-60
2022/01/18 06:38:13;;;;;;;5.10;2.20;;;-1.20;99.90;;;;;;5008626;28;20229;-62
2022/01/18 06:40:40;;;;;;;7.40;2.07;;;-1.20;99.90;;;;;;5007954;28;20195;-60
2022/01/18 06:43:06;;;;;;;5.33;1.93;;;-1.20;99.90;;;;;;5008261;28;20191;-61
2022/01/18 06:45:32;;;;;;;4.93;1.83;;;-1.20;99.90;;;;;;4998328;28;20194;-60
2022/01/18 06:47:58;;;;;;;9.27;2.90;;;-1.20;99.90;;;;;;5006599;28;20230;-60
2022/01/18 06:50:23;;;;;;;3.03;1.47;;;-1.10;99.90;;;;;;5009221;28;20281;-61
2022/01/18 06:52:49;;;;;;;10.53;2.30;;;-1.10;99.90;;;;;;4989402;28;20234;-58
2022/01/18 06:55:15;;;;;;;6.97;1.90;;;-1.00;99.90;;;;;;4989982;28;20661;-59
2022/01/18 06:57:41;;;;;;;3.10;1.77;;;-1.00;99.90;;;;;;4979500;28;20705;-60
2022/01/18 07:00:08;;;;;;;7.03;2.13;;;-0.90;99.90;;;;;;4987802;28;20347;-58
2022/01/18 07:02:34;;;;;;;9.50;2.03;;;-0.90;99.90;;;;;;4958595;28;20292;-63
2022/01/18 07:05:00;;;;;;;8.43;2.90;;;-0.90;99.90;;;;;;4968691;28;20176;-67
2022/01/18 07:07:25;;;;;;;6.20;2.40;;;-0.90;99.90;;;;;;4974139;28;20197;-59
2022/01/18 07:09:51;;;;;;;6.07;2.37;;;-0.80;99.90;;;;;;4969872;28;20271;-55
2022/01/18 07:12:18;;;;;;;8.50;2.23;;;-0.80;99.90;;;;;;4966776;28;20190;-58
2022/01/18 07:14:44;;;;;;;5.70;1.63;;;-0.80;99.90;;;;;;4967800;28;20188;-57
2022/01/18 07:17:10;;;;;;;2.47;1.30;;;-0.70;99.90;;;;;;4968571;28;20213;-57
2022/01/18 07:19:37;;;;;;;8.63;2.33;;;-0.70;99.90;;;;;;4972385;28;20239;-59
2022/01/18 07:22:04;;;;;;;7.37;2.00;;;-0.70;99.90;;;;;;4996897;28;20278;-60
2022/01/18 07:24:45;;;;;;;5.30;2.23;;;-0.60;99.90;;;;;;4971655;28;20207;-57
2022/01/18 07:27:13;;;;;;;5.70;1.53;;;-0.60;99.90;;;;;;4988725;28;20292;-55
2022/01/18 07:29:43;;;;;;;6.53;2.10;;;-0.60;99.90;;;;;;4964893;28;20188;-56
2022/01/18 07:32:12;;;;;;;11.37;2.30;;;-0.60;99.90;;;;;;4972817;28;20184;-57
2022/01/18 07:34:49;;;;;;;6.83;2.30;;;-0.60;99.90;;;;;;4991582;28;20194;-60
2022/01/18 07:37:15;;;;;;;10.23;2.60;;;-0.50;99.90;;;;;;4984968;28;20220;-59
2022/01/18 07:39:41;;;;;;;8.60;2.50;;;-0.50;99.90;;;;;;4971612;28;20199;-61
2022/01/18 07:42:07;;;;;;;8.30;2.23;;;-0.50;99.90;;;;;;4985957;28;20188;-66
2022/01/18 07:44:33;;;;;;;6.57;2.50;;;-0.50;99.90;;;;;;4999843;28;20274;-58
2022/01/18 07:46:59;;;;;;;5.67;1.53;;;-0.40;99.90;;;;;;4990855;28;20275;-60
2022/01/18 07:49:24;;;;;;;7.80;2.33;;;-0.40;99.90;;;;;;4971511;28;20204;-58
2022/01/18 07:51:50;;;;;;;6.10;2.20;;;-0.40;99.90;;;;;;4963618;28;20287;-58
2022/01/18 07:54:17;;;;;;;5.40;1.60;;;-0.40;99.90;;;;;;4968664;28;20199;-59
2022/01/18 07:56:44;;;;;;;5.77;1.83;;;-0.40;99.90;;;;;;4961086;28;20220;-60
2022/01/18 07:59:11;;;;;;;7.73;2.30;;;-0.30;99.90;;;;;;4971215;28;20279;-59
2022/01/18 08:01:37;;;;;;;4.00;2.03;;;-0.40;99.90;;;;;;4971715;28;20235;-61
2022/01/18 08:04:03;;;;;;;4.40;1.83;;;-0.40;99.90;;;;;;4989276;28;20184;-68
2022/01/18 08:06:29;;;;;;;4.07;1.20;;;-0.30;99.90;;;;;;4988551;28;20200;-59
2022/01/18 08:08:55;;;;;;;5.73;1.83;;;-0.30;99.90;;;;;;4971826;28;20208;-57
2022/01/18 08:11:21;;;;;;;3.73;1.87;;;-0.30;99.90;;;;;;4960288;28;20193;-61
2022/01/18 08:13:49;;;;;;;6.73;2.03;;;-0.10;99.90;;;;;;4978119;28;20244;-66
2022/01/18 08:18:59;;;;;;;12.47;1.87;;;0.00;99.90;;;;;;4969521;28;20189;-62
2022/01/18 08:21:25;;;;;;;7.90;2.00;;;0.00;99.90;;;;;;4969294;28;20188;-60
2022/01/18 08:23:52;;;;;;;14.00;4.00;;;0.00;99.90;;;;;;4970626;28;20189;-62
2022/01/18 08:26:18;;;;;;;3.60;1.87;;;0.10;99.90;;;;;;4970355;28;20212;-59
2022/01/18 08:28:44;;;;;;;7.73;2.20;;;0.00;99.90;;;;;;4972233;28;20665;-60
2022/01/18 08:31:10;;;;;;;14.03;2.70;;;-0.10;99.90;;;;;;4984276;28;20202;-61
2022/01/18 08:33:36;;;;;;;12.57;2.87;;;0.00;99.90;;;;;;4978847;28;20641;-61
2022/01/18 08:36:04;;;;;;;3.13;1.53;;;0.00;99.90;;;;;;4983768;28;20219;-59
2022/01/18 08:38:30;;;;;;;6.53;1.60;;;-0.10;99.90;;;;;;4974544;28;20236;-61
2022/01/18 08:40:59;;;;;;;8.93;2.00;;;-0.20;99.90;;;;;;4974746;28;20193;-61
2022/01/18 08:43:25;;;;;;;8.80;1.97;;;-0.20;99.90;;;;;;4974208;28;20652;-58
2022/01/18 08:45:51;;;;;;;6.27;2.03;;;-0.10;99.90;;;;;;4957294;28;20200;-57
2022/01/18 08:48:17;;;;;;;9.57;2.00;;;0.00;99.90;;;;;;4974811;28;20196;-58
2022/01/18 08:50:43;;;;;;;6.53;1.83;;;0.10;99.90;;;;;;4991829;28;20194;-61
2022/01/18 08:53:09;;;;;;;6.00;1.97;;;0.10;99.90;;;;;;5004867;28;20235;-57
2022/01/18 08:55:35;;;;;;;3.67;1.60;;;0.10;99.90;;;;;;5013553;28;20574;-56
2022/01/18 08:58:02;;;;;;;12.70;2.37;;;0.30;99.90;;;;;;5013263;28;20235;-57
2022/01/18 09:00:28;;;;;;;8.97;2.80;;;0.40;99.90;;;;;;5012818;28;20706;-57
2022/01/18 09:02:54;;;;;;;5.07;1.33;;;0.30;99.90;;;;;;5014234;28;20179;-58
2022/01/18 09:05:22;;;;;;;8.93;2.00;;;0.30;99.90;;;;;;5013361;28;20207;-56
2022/01/18 09:07:49;;;;;;;4.47;1.80;;;0.30;99.90;;;;;;4996177;28;20250;-60
2022/01/18 09:10:15;;;;;;;5.77;1.77;;;0.30;99.90;;;;;;4995398;28;20212;-57
2022/01/18 09:12:41;;;;;;;7.50;1.30;;;0.40;99.90;;;;;;5011905;28;20195;-58
2022/01/18 09:15:09;;;;;;;4.97;1.50;;;0.20;99.90;;;;;;5011077;28;20666;-69
2022/01/18 09:17:36;;;;;;;6.70;1.20;;;0.40;99.90;;;;;;5011595;28;20211;-61
2022/01/18 09:20:06;;;;;;;10.63;2.20;;;0.50;99.90;;;;;;5011783;28;20176;-61
2022/01/18 09:22:38;;;;;;;4.53;1.93;;;0.50;99.90;;;;;;5011366;28;20226;-60
2022/01/18 09:25:06;;;;;;;3.03;1.50;;;0.50;99.90;;;;;;4977874;28;20227;-62
2022/01/18 09:27:33;;;;;;;13.30;2.50;;;0.50;99.90;;;;;;4995023;28;20180;-60
2022/01/18 09:29:58;;;;;;;10.97;2.37;;;0.50;99.90;;;;;;4995378;28;20177;-58
2022/01/18 09:32:25;;;;;;;4.23;1.73;;;0.40;99.90;;;;;;5012882;28;20591;-61
2022/01/18 09:34:51;;;;;;;6.77;1.37;;;0.40;99.90;;;;;;5012682;28;20189;-61
2022/01/18 09:37:17;;;;;;;4.40;1.40;;;0.50;99.90;;;;;;4995404;28;20249;-59
2022/01/18 09:39:43;;;;;;;7.20;1.40;;;0.60;99.90;;;;;;5012380;28;20213;-59
2022/01/18 09:42:11;;;;;;;15.87;3.50;;;0.70;99.90;;;;;;4994329;28;20192;-61
2022/01/18 09:44:37;;;;;;;4.30;1.70;;;0.70;99.90;;;;;;5012880;28;20307;-62
2022/01/18 09:47:04;;;;;;;12.17;1.83;;;0.50;99.90;;;;;;4995499;28;20601;-61
2022/01/18 09:49:31;;;;;;;9.47;1.73;;;0.50;99.90;;;;;;4978326;28;20219;-63
2022/01/18 09:51:57;;;;;;;8.97;2.50;;;0.50;99.90;;;;;;5012281;28;20186;-60
2022/01/18 09:54:23;;;;;;;10.67;1.80;;;0.60;99.90;;;;;;5012213;28;20176;-58
2022/01/18 09:56:48;;;;;;;9.00;1.43;;;0.70;99.90;;;;;;5012009;28;20227;-59
2022/01/18 09:59:15;;;;;;;8.50;1.47;;;0.60;99.90;;;;;;5012578;28;20604;-60
2022/01/18 10:01:41;;;;;;;8.50;1.80;;;0.60;99.90;;;;;;4978265;28;20612;-59
2022/01/18 10:04:22;;;;;;;9.53;1.87;;;0.50;99.90;;;;;;5016624;28;20565;-64
2022/01/18 10:06:51;;;;;;;5.93;1.83;;;0.60;99.90;;;;;;5030356;28;20187;-59
2022/01/18 10:09:19;;;;;;;9.77;1.83;;;0.60;99.90;;;;;;5031231;28;20524;-61
2022/01/18 10:12:00;;;;;;;10.00;1.83;;;0.40;99.90;;;;;;5030700;28;20195;-60
2022/01/18 10:14:27;;;;;;;3.43;1.57;;;0.60;99.90;;;;;;5010326;28;20192;-60
2022/01/18 10:16:53;;;;;;;12.33;2.50;;;0.70;99.90;;;;;;4992651;28;20315;-57
2022/01/18 10:19:50;;;;;;;5.63;1.63;;;0.70;99.90;;;;;;4992541;28;20184;-58
2022/01/18 10:22:25;;;;;;;5.13;2.07;;;0.70;99.90;;;;;;4976586;28;20258;-60
2022/01/18 10:24:52;;;;;;;14.80;2.30;;;0.70;99.90;;;;;;4992607;28;20266;-58
2022/01/18 10:27:18;;;;;;;25.50;4.37;;;0.70;99.90;;;;;;4992418;28;20343;-57
2022/01/18 10:29:50;;;;;;;10.17;2.83;;;0.90;99.90;;;;;;4992326;28;20193;-59
2022/01/18 10:32:36;;;;;;;11.43;2.67;;;0.80;99.90;;;;;;4992195;28;20204;-58
2022/01/18 10:35:07;;;;;;;7.63;1.70;;;0.80;99.90;;;;;;4992332;28;20195;-57
2022/01/18 10:37:34;;;;;;;11.67;2.30;;;0.90;99.90;;;;;;4992114;28;20217;-54
2022/01/18 10:40:08;;;;;;;6.83;2.27;;;0.90;99.90;;;;;;4991910;28;20197;-59
2022/01/18 10:42:46;;;;;;;3.60;1.43;;;1.00;99.90;;;;;;4992303;28;20299;-55
2022/01/18 10:45:22;;;;;;;19.03;2.87;;;0.90;99.90;;;;;;4991944;28;20633;-56
2022/01/18 10:48:00;;;;;;;6.73;1.80;;;0.80;99.90;;;;;;4990943;28;20192;-57
2022/01/18 10:50:34;;;;;;;10.10;2.00;;;0.60;99.90;;;;;;4991280;28;20184;-58
2022/01/18 10:53:21;;;;;;;5.43;2.67;;;0.50;99.90;;;;;;5000581;28;20224;-57
2022/01/18 10:55:49;;;;;;;15.23;1.70;;;0.40;99.90;;;;;;5011407;28;20179;-57
2022/01/18 10:58:20;;;;;;;9.07;1.57;;;0.30;99.90;;;;;;5010743;28;20209;-56
2022/01/18 11:00:47;;;;;;;7.43;2.00;;;0.30;99.90;;;;;;4993064;28;20325;-59
2022/01/18 11:03:13;;;;;;;21.13;2.23;;;0.40;99.90;;;;;;4992567;28;20232;-59
2022/01/18 11:05:44;;;;;;;6.73;2.10;;;0.50;99.90;;;;;;5010842;28;20184;-59
2022/01/18 11:08:09;;;;;;;7.00;2.37;;;0.60;99.90;;;;;;5011216;28;20273;-59
2022/01/18 11:10:41;;;;;;;8.60;3.00;;;0.60;99.90;;;;;;5011576;28;20652;-59
2022/01/18 11:13:18;;;;;;;7.63;1.83;;;0.60;99.90;;;;;;5011100;28;20175;-64
2022/01/18 11:15:51;;;;;;;7.27;2.03;;;0.60;99.90;;;;;;4991138;28;20197;-60
2022/01/18 11:18:28;;;;;;;7.93;2.20;;;0.80;99.90;;;;;;4991589;28;20231;-60
2022/01/18 11:20:55;;;;;;;7.13;2.33;;;0.70;99.90;;;;;;4991642;28;20180;-59
2022/01/18 11:23:23;;;;;;;7.80;2.20;;;0.70;99.90;;;;;;4973328;28;20282;-57
2022/01/18 11:25:50;;;;;;;14.77;1.60;;;0.90;99.90;;;;;;4991790;28;20504;-59
2022/01/18 11:28:16;;;;;;;6.07;2.03;;;1.00;99.90;;;;;;4990930;28;20192;-59
2022/01/18 11:30:45;;;;;;;8.67;2.13;;;0.90;99.90;;;;;;4991699;28;20170;-58
2022/01/18 11:33:16;;;;;;;5.50;2.17;;;0.90;99.90;;;;;;4990454;28;20186;-59
2022/01/18 11:36:03;;;;;;;8.63;1.70;;;0.80;99.90;;;;;;4991251;28;20259;-59
2022/01/18 11:38:49;;;;;;;5.73;1.80;;;0.70;99.90;;;;;;4990476;28;20688;-60
2022/01/18 11:41:24;;;;;;;12.97;1.90;;;0.70;99.90;;;;;;4991281;28;20247;-60
2022/01/18 11:43:52;;;;;;;3.97;1.47;;;0.80;99.90;;;;;;4990960;28;20622;-61
2022/01/18 11:46:36;;;;;;;7.20;2.20;;;0.70;99.90;;;;;;4990515;28;20196;-55
2022/01/18 11:49:09;;;;;;;3.67;1.40;;;0.70;99.90;;;;;;4973649;28;20279;-58
2022/01/18 11:51:39;;;;;;;5.77;1.77;;;0.60;99.90;;;;;;4991221;28;20572;-58
2022/01/18 11:54:37;;;;;;;12.30;2.93;;;0.60;99.90;;;;;;4972656;28;20232;-60
2022/01/18 11:57:22;;;;;;;4.80;2.17;;;0.80;99.90;;;;;;4971795;28;20206;-58
2022/01/18 12:00:10;;;;;;;7.60;2.67;;;0.90;99.90;;;;;;4971971;28;20180;-60
2022/01/18 12:02:43;;;;;;;9.00;2.43;;;1.00;99.90;;;;;;4971354;28;20245;-58
2022/01/18 12:05:21;;;;;;;18.37;3.10;;;0.90;99.90;;;;;;4974798;28;20277;-65
2022/01/18 12:07:58;;;;;;;5.50;2.33;;;0.70;99.90;;;;;;4975139;28;20189;-58
2022/01/18 12:10:31;;;;;;;3.67;1.90;;;0.50;99.90;;;;;;4975668;28;20600;-59
2022/01/18 12:12:59;;;;;;;3.43;1.70;;;0.50;99.90;;;;;;4974921;28;20173;-57
2022/01/18 12:15:26;;;;;;;5.73;2.50;;;0.50;99.90;;;;;;4993348;28;20180;-60
2022/01/18 12:18:04;;;;;;;8.10;2.50;;;0.40;99.90;;;;;;4994852;28;20223;-59
2022/01/18 12:20:42;;;;;;;8.80;3.37;;;0.30;99.90;;;;;;4994247;28;20211;-57
2022/01/18 12:23:20;;;;;;;15.33;3.60;;;0.40;99.90;;;;;;4994762;28;20250;-59
2022/01/18 12:25:57;;;;;;;6.80;2.27;;;0.40;99.90;;;;;;4995116;28;20187;-59
2022/01/18 12:34:37;;;;;;;7.93;2.37;;;0.60;99.90;;;;;;4989915;28;20201;-56
2022/01/18 12:37:11;;;;;;;3.20;1.90;;;0.50;99.90;;;;;;4994602;28;20205;-57
2022/01/18 12:39:51;;;;;;;9.53;2.03;;;0.30;99.90;;;;;;4994748;28;20203;-60
2022/01/18 12:45:01;;;;;;;9.93;2.80;;;0.30;99.90;;;;;;4994650;28;20177;-61
2022/01/18 12:47:27;;;;;;;8.63;3.33;;;0.30;99.90;;;;;;4994179;28;20289;-62
2022/01/18 12:49:54;;;;;;;7.47;2.80;;;0.40;99.90;;;;;;4994493;28;20309;-58
2022/01/18 12:52:21;;;;;;;8.33;2.90;;;0.40;99.90;;;;;;4997454;28;20325;-61
2022/01/18 12:54:48;;;;;;;9.50;2.60;;;0.40;99.90;;;;;;4996207;28;20195;-61
2022/01/18 12:57:15;;;;;;;10.07;2.37;;;0.40;99.90;;;;;;5013667;28;20688;-59
2022/01/18 13:00:00;;;;;;;9.73;2.57;;;0.40;99.90;;;;;;5013850;28;20239;-58
2022/01/18 13:02:27;;;;;;;6.43;2.60;;;0.20;99.90;;;;;;5013649;28;20262;-59
2022/01/18 13:05:01;;;;;;;12.20;2.53;;;0.20;99.90;;;;;;5013504;28;20175;-59
2022/01/18 13:07:28;;;;;;;7.70;3.17;;;0.20;99.90;;;;;;5013405;28;20197;-62
2022/01/18 13:10:02;;;;;;;5.07;2.67;;;0.10;99.90;;;;;;5013557;28;20263;-56
2022/01/18 13:12:29;;;;;;;10.43;2.37;;;0.00;99.90;;;;;;5012928;28;20187;-57
2022/01/18 13:14:57;;;;;;;9.30;2.67;;;-0.10;99.90;;;;;;4994881;28;20192;-59
2022/01/18 13:23:27;;;;;;;8.23;3.10;;;-0.20;99.90;;;;;;5012583;28;20237;-59
2022/01/18 13:25:55;;;;;;;9.07;3.10;;;-0.30;99.90;;;;;;5012859;28;20245;-61
2022/01/18 13:28:38;;;;;;;5.33;2.43;;;-0.40;99.90;;;;;;5013106;28;20308;-59
2022/01/18 13:31:22;;;;;;;8.83;2.93;;;-0.40;99.90;;;;;;5012988;28;20519;-54
2022/01/18 13:34:10;;;;;;;7.53;3.30;;;-0.30;99.90;;;;;;5013407;28;20271;-60
2022/01/18 13:37:03;;;;;;;9.83;2.00;;;-0.20;99.90;;;;;;4994726;28;20190;-57
2022/01/18 13:39:50;;;;;;;5.13;2.10;;;-0.10;99.90;;;;;;5012401;28;20270;-60
2022/01/18 13:42:22;;;;;;;10.10;2.63;;;0.10;99.90;;;;;;5004451;28;20203;-59
2022/01/18 13:45:08;;;;;;;10.20;2.37;;;0.30;99.90;;;;;;5001165;28;20223;-58
2022/01/18 13:47:49;;;;;;;16.40;2.40;;;0.30;99.90;;;;;;4992543;28;20329;-60
2022/01/18 13:50:42;;;;;;;13.30;2.63;;;0.30;99.90;;;;;;4992869;28;20200;-65
2022/01/18 13:53:22;;;;;;;7.00;2.73;;;0.30;99.90;;;;;;4999356;28;20227;-58
2022/01/18 13:55:53;;;;;;;20.90;3.30;;;0.80;99.90;;;;;;4993777;28;20661;-58
2022/01/18 13:58:50;;;;;;;6.67;2.67;;;1.60;99.90;;;;;;4992283;28;20230;-60
2022/01/18 14:01:24;;;;;;;17.43;2.90;;;1.80;99.90;;;;;;4995176;28;20199;-57
2022/01/18 14:03:51;;;;;;;4.57;2.27;;;2.40;99.90;;;;;;4994571;28;20569;-59
2022/01/18 14:06:18;;;;;;;9.30;1.97;;;2.60;99.60;;;;;;5006161;28;20260;-61
2022/01/18 14:08:52;;;;;;;5.17;1.97;;;2.30;98.80;;;;;;4994389;28;20728;-61
2022/01/18 14:11:25;;;;;;;7.37;2.17;;;1.60;99.30;;;;;;4994557;28;20186;-56
2022/01/18 14:13:53;;;;;;;8.37;2.43;;;1.00;99.80;;;;;;5012061;28;20272;-58
2022/01/18 14:16:30;;;;;;;8.40;2.60;;;0.80;99.90;;;;;;5011800;28;20295;-58